Time;durP1;ratioP1;P1;durP2;ratioP2;P2;SDS_P1;SDS_P2;PMS_P1;PMS_P2;Temp;Humidity;BMP_temperature;BMP_pressure;BME280_temperature;BME280_humidity;BME280_pressure;Samples;Min_cycle;Max_cycle;Signal;HPM_P1;HPM_P2
2023/06/02 00:00:14;;;;;;;17.27;3.35;;;;;;;;;;5058900;28;20077;-71
2023/06/02 00:02:41;;;;;;;16.20;3.55;;;;;;;;;;5032081;28;20121;-71
2023/06/02 00:05:07;;;;;;;16.90;3.53;;;;;;;;;;5032113;28;20103;-71
2023/06/02 00:07:33;;;;;;;14.88;3.92;;;;;;;;;;5047098;28;20053;-72
2023/06/02 00:09:59;;;;;;;16.15;3.25;;;;;;;;;;5030023;28;20054;-71
2023/06/02 00:12:25;;;;;;;15.68;3.65;;;;;;;;;;5047690;28;20414;-71
2023/06/02 00:14:52;;;;;;;14.68;3.28;;;;;;;;;;5032007;28;20456;-71
2023/06/02 00:17:19;;;;;;;14.77;3.83;;;;;;;;;;5014954;28;20117;-71
2023/06/02 00:19:47;;;;;;;17.92;3.55;;;;;;;;;;5031425;28;20085;-72
2023/06/02 00:22:13;;;;;;;15.32;3.50;;;;;;;;;;5031830;28;20055;-72
2023/06/02 00:24:40;;;;;;;19.50;3.90;;;;;;;;;;5033289;28;20045;-71
2023/06/02 00:27:07;;;;;;;15.98;3.25;;;;;;;;;;5071855;28;20113;-71
2023/06/02 00:29:33;;;;;;;17.52;3.88;;;;;;;;;;5071391;28;20041;-72
2023/06/02 00:31:59;;;;;;;17.83;3.55;;;;;;;;;;5026651;28;20478;-72
2023/06/02 00:34:25;;;;;;;14.68;3.65;;;;;;;;;;5016629;28;20116;-72
2023/06/02 00:36:51;;;;;;;12.30;3.03;;;;;;;;;;5018356;28;20068;-72
2023/06/02 00:39:17;;;;;;;19.30;4.00;;;;;;;;;;5035442;28;20048;-72
2023/06/02 00:41:45;;;;;;;16.65;3.80;;;;;;;;;;5033960;28;20051;-72
2023/06/02 00:44:11;;;;;;;14.35;3.33;;;;;;;;;;5034630;28;20052;-72
2023/06/02 00:46:37;;;;;;;14.23;3.25;;;;;;;;;;5017744;28;20049;-72
2023/06/02 00:49:03;;;;;;;13.93;3.85;;;;;;;;;;5017261;28;20129;-72
2023/06/02 00:51:29;;;;;;;17.33;3.50;;;;;;;;;;5035346;28;20041;-72
2023/06/02 00:53:55;;;;;;;16.73;3.65;;;;;;;;;;5035140;28;20056;-72
2023/06/02 00:56:23;;;;;;;13.80;3.40;;;;;;;;;;5035476;28;20087;-72
2023/06/02 00:58:49;;;;;;;19.90;3.90;;;;;;;;;;5034950;28;20054;-72
2023/06/02 01:01:18;;;;;;;19.90;3.97;;;;;;;;;;5035140;28;20038;-73
2023/06/02 01:03:45;;;;;;;15.15;3.72;;;;;;;;;;5034797;28;20465;-72
2023/06/02 01:06:13;;;;;;;14.68;3.22;;;;;;;;;;5034903;28;20465;-70
2023/06/02 01:08:40;;;;;;;20.00;3.65;;;;;;;;;;5034585;28;20543;-70
2023/06/02 01:11:07;;;;;;;14.85;3.80;;;;;;;;;;5020723;28;20144;-70
2023/06/02 01:13:33;;;;;;;17.08;3.50;;;;;;;;;;5065822;28;20033;-70
2023/06/02 01:15:59;;;;;;;16.02;3.17;;;;;;;;;;5047503;28;20127;-70
2023/06/02 01:18:29;;;;;;;11.63;3.17;;;;;;;;;;5053010;28;20045;-71
2023/06/02 01:20:58;;;;;;;14.77;3.55;;;;;;;;;;5060012;28;20556;-70
2023/06/02 01:23:32;;;;;;;13.05;4.28;;;;;;;;;;5074565;28;20056;-70
2023/06/02 01:25:58;;;;;;;17.38;3.85;;;;;;;;;;5037753;28;20485;-71
2023/06/02 01:28:25;;;;;;;16.30;3.65;;;;;;;;;;5054434;28;20132;-71
2023/06/02 01:30:53;;;;;;;16.10;3.50;;;;;;;;;;5047722;28;20156;-71
2023/06/02 01:33:19;;;;;;;19.10;4.07;;;;;;;;;;5032198;28;20256;-70
2023/06/02 01:35:47;;;;;;;14.52;3.42;;;;;;;;;;5047968;28;20041;-71
2023/06/02 01:38:14;;;;;;;18.40;3.75;;;;;;;;;;5073574;28;20080;-71
2023/06/02 01:40:42;;;;;;;14.50;3.47;;;;;;;;;;5074060;28;20051;-71
2023/06/02 01:43:08;;;;;;;16.27;3.65;;;;;;;;;;5072124;28;20508;-71
2023/06/02 01:45:34;;;;;;;17.75;3.60;;;;;;;;;;5060659;28;20404;-72
2023/06/02 01:48:04;;;;;;;18.05;3.95;;;;;;;;;;5036321;28;20056;-72
2023/06/02 01:50:31;;;;;;;18.25;4.10;;;;;;;;;;5053921;28;20104;-71
2023/06/02 01:52:57;;;;;;;15.45;3.53;;;;;;;;;;5058892;28;20114;-72
2023/06/02 01:55:23;;;;;;;16.58;3.38;;;;;;;;;;5043683;28;20124;-72
2023/06/02 01:57:50;;;;;;;16.90;3.70;;;;;;;;;;5054125;28;20041;-72
2023/06/02 02:00:16;;;;;;;17.35;3.90;;;;;;;;;;5033811;28;20533;-71
2023/06/02 02:02:42;;;;;;;18.85;3.90;;;;;;;;;;5049062;28;20104;-72
2023/06/02 02:05:09;;;;;;;19.05;3.85;;;;;;;;;;5049788;28;20049;-72
2023/06/02 02:07:35;;;;;;;13.38;3.40;;;;;;;;;;5069152;28;20091;-72
2023/06/02 02:10:02;;;;;;;16.30;3.50;;;;;;;;;;5073541;28;20052;-72
2023/06/02 02:12:29;;;;;;;21.90;3.85;;;;;;;;;;5040513;28;20128;-70
2023/06/02 02:14:57;;;;;;;20.35;3.70;;;;;;;;;;5069148;28;20060;-71
2023/06/02 02:17:26;;;;;;;17.80;3.70;;;;;;;;;;5058054;28;20057;-71
2023/06/02 02:19:56;;;;;;;19.83;3.83;;;;;;;;;;5063873;28;20072;-71
2023/06/02 02:22:25;;;;;;;14.80;3.85;;;;;;;;;;5069738;28;20086;-73
2023/06/02 02:24:51;;;;;;;15.32;3.33;;;;;;;;;;5073444;28;20044;-71
2023/06/02 02:27:18;;;;;;;23.98;4.13;;;;;;;;;;5059647;28;20052;-71
2023/06/02 02:29:44;;;;;;;18.75;3.78;;;;;;;;;;5053171;28;20044;-71
2023/06/02 02:32:10;;;;;;;18.35;3.97;;;;;;;;;;5065901;28;20043;-71
2023/06/02 02:34:39;;;;;;;16.77;3.67;;;;;;;;;;5054589;28;20053;-73
2023/06/02 02:37:06;;;;;;;16.98;3.47;;;;;;;;;;5071000;28;20068;-71
2023/06/02 02:39:32;;;;;;;18.98;3.50;;;;;;;;;;5051319;28;20048;-71
2023/06/02 02:41:58;;;;;;;16.75;3.45;;;;;;;;;;5043617;28;20121;-71
2023/06/02 02:44:24;;;;;;;20.77;3.90;;;;;;;;;;5072753;28;20438;-71
2023/06/02 02:46:50;;;;;;;15.48;3.38;;;;;;;;;;5059971;28;20041;-71
2023/06/02 02:49:16;;;;;;;18.23;3.55;;;;;;;;;;5052703;28;20080;-71
2023/06/02 02:51:42;;;;;;;24.85;3.83;;;;;;;;;;5053268;28;20075;-71
2023/06/02 02:54:08;;;;;;;17.63;3.63;;;;;;;;;;5034640;28;20048;-71
2023/06/02 02:56:36;;;;;;;18.98;4.00;;;;;;;;;;5053233;28;20053;-71
2023/06/02 02:59:02;;;;;;;13.13;3.42;;;;;;;;;;5065781;28;20127;-71
2023/06/02 03:01:29;;;;;;;19.27;3.78;;;;;;;;;;5067028;28;20090;-71
2023/06/02 03:03:56;;;;;;;26.83;4.22;;;;;;;;;;5070672;28;20408;-71
2023/06/02 03:06:29;;;;;;;16.25;4.05;;;;;;;;;;5038147;28;20048;-71
2023/06/02 03:08:55;;;;;;;21.90;3.85;;;;;;;;;;5037020;28;20136;-71
2023/06/02 03:11:21;;;;;;;20.02;3.80;;;;;;;;;;5052200;28;20052;-71
2023/06/02 03:13:47;;;;;;;22.20;3.88;;;;;;;;;;5051885;28;20060;-71
2023/06/02 03:16:13;;;;;;;15.27;3.50;;;;;;;;;;5052574;28;20235;-72
2023/06/02 03:18:39;;;;;;;17.60;3.97;;;;;;;;;;5034381;28;20037;-71
2023/06/02 03:21:06;;;;;;;21.27;4.25;;;;;;;;;;5069804;28;20150;-72
2023/06/02 03:23:32;;;;;;;17.92;3.30;;;;;;;;;;5072593;28;20055;-72
2023/06/02 03:26:00;;;;;;;20.90;3.95;;;;;;;;;;5072659;28;20036;-71
2023/06/02 03:28:26;;;;;;;18.98;3.78;;;;;;;;;;5072168;28;20517;-71
2023/06/02 03:30:52;;;;;;;15.27;4.05;;;;;;;;;;5041458;28;20071;-71
2023/06/02 03:33:18;;;;;;;17.58;3.70;;;;;;;;;;5032087;28;20550;-71
2023/06/02 03:35:44;;;;;;;20.08;3.97;;;;;;;;;;5032751;28;20095;-71
2023/06/02 03:38:10;;;;;;;19.20;3.67;;;;;;;;;;5047672;28;20050;-71
2023/06/02 03:40:36;;;;;;;16.92;3.95;;;;;;;;;;5032267;28;20467;-71
2023/06/02 03:43:02;;;;;;;20.85;4.03;;;;;;;;;;5031342;28;20080;-71
2023/06/02 03:45:28;;;;;;;19.80;3.80;;;;;;;;;;5029357;28;20116;-71
2023/06/02 03:47:54;;;;;;;19.63;4.03;;;;;;;;;;5030650;28;20558;-71
2023/06/02 03:50:20;;;;;;;27.10;3.67;;;;;;;;;;5032100;28;20045;-72
2023/06/02 03:52:46;;;;;;;23.85;4.35;;;;;;;;;;5014572;28;20136;-72
2023/06/02 03:55:12;;;;;;;16.67;3.67;;;;;;;;;;5047308;28;20509;-71
2023/06/02 03:57:38;;;;;;;21.25;4.03;;;;;;;;;;5067101;28;20139;-72
2023/06/02 04:00:10;;;;;;;16.35;3.78;;;;;;;;;;5071656;28;20447;-72
2023/06/02 04:02:36;;;;;;;21.27;4.10;;;;;;;;;;5050386;28;20045;-72
2023/06/02 04:05:03;;;;;;;20.52;3.72;;;;;;;;;;5031382;28;20052;-71
2023/06/02 04:07:29;;;;;;;20.08;4.10;;;;;;;;;;5048990;28;20128;-72
2023/06/02 04:09:55;;;;;;;16.90;3.78;;;;;;;;;;5067302;28;20556;-72
2023/06/02 04:12:21;;;;;;;24.25;4.07;;;;;;;;;;5056053;28;20045;-72
2023/06/02 04:14:47;;;;;;;22.67;4.05;;;;;;;;;;5055775;28;20055;-71
2023/06/02 04:17:13;;;;;;;20.20;4.25;;;;;;;;;;5055876;28;20083;-72
2023/06/02 04:19:39;;;;;;;19.35;3.70;;;;;;;;;;5055771;28;20490;-71
2023/06/02 04:22:05;;;;;;;20.02;4.30;;;;;;;;;;5070513;28;20044;-72
2023/06/02 04:24:31;;;;;;;16.55;3.60;;;;;;;;;;5053526;28;20417;-71
2023/06/02 04:26:57;;;;;;;21.17;3.85;;;;;;;;;;5055219;28;20366;-72
2023/06/02 04:29:24;;;;;;;21.27;4.10;;;;;;;;;;5055080;28;20049;-71
2023/06/02 04:31:50;;;;;;;17.02;4.40;;;;;;;;;;5056539;28;20041;-71
2023/06/02 04:34:16;;;;;;;17.48;4.00;;;;;;;;;;5035836;28;20053;-72
2023/06/02 04:36:43;;;;;;;18.75;4.15;;;;;;;;;;5035706;28;20111;-71
2023/06/02 04:39:09;;;;;;;25.33;4.45;;;;;;;;;;5050757;28;20383;-71
2023/06/02 04:41:36;;;;;;;20.73;4.22;;;;;;;;;;5053374;28;20113;-71
2023/06/02 04:44:02;;;;;;;19.52;4.43;;;;;;;;;;5055806;28;20045;-71
2023/06/02 04:46:28;;;;;;;18.15;3.70;;;;;;;;;;5055288;28;20076;-72
2023/06/02 04:48:54;;;;;;;23.15;4.38;;;;;;;;;;5055227;28;20052;-71
2023/06/02 04:51:30;;;;;;;17.83;4.32;;;;;;;;;;5055176;28;20180;-71
2023/06/02 04:53:56;;;;;;;20.95;4.65;;;;;;;;;;5050730;28;20072;-71
2023/06/02 04:56:26;;;;;;;19.70;3.83;;;;;;;;;;5066808;28;20137;-71
2023/06/02 04:58:52;;;;;;;21.20;4.13;;;;;;;;;;5057769;28;20179;-71
2023/06/02 05:01:18;;;;;;;20.60;4.22;;;;;;;;;;5054912;28;20127;-71
2023/06/02 05:03:44;;;;;;;21.65;4.32;;;;;;;;;;5065728;28;20441;-71
2023/06/02 05:06:11;;;;;;;28.08;4.60;;;;;;;;;;5057160;28;20460;-71
2023/06/02 05:08:37;;;;;;;24.45;4.43;;;;;;;;;;5058471;28;20046;-71
2023/06/02 05:11:03;;;;;;;22.75;4.18;;;;;;;;;;5034396;28;20049;-71
2023/06/02 05:13:29;;;;;;;27.00;5.22;;;;;;;;;;5034674;28;20124;-71
2023/06/02 05:15:56;;;;;;;21.80;4.32;;;;;;;;;;5048909;28;20050;-72
2023/06/02 05:18:23;;;;;;;27.48;4.63;;;;;;;;;;5032779;28;20046;-71
2023/06/02 05:20:51;;;;;;;19.38;4.40;;;;;;;;;;5065869;28;20047;-72
2023/06/02 05:23:17;;;;;;;24.15;4.65;;;;;;;;;;5074301;28;20049;-75
2023/06/02 05:25:43;;;;;;;21.92;4.57;;;;;;;;;;5056419;28;20083;-76
2023/06/02 05:28:09;;;;;;;20.75;4.85;;;;;;;;;;5055246;28;20049;-75
2023/06/02 05:30:36;;;;;;;22.67;5.00;;;;;;;;;;5056099;28;20041;-75
2023/06/02 05:33:02;;;;;;;23.52;4.65;;;;;;;;;;5053276;28;20088;-76
2023/06/02 05:35:28;;;;;;;24.48;5.13;;;;;;;;;;5053898;28;20346;-77
2023/06/02 05:37:57;;;;;;;21.40;5.07;;;;;;;;;;5067775;28;20041;-76
2023/06/02 05:40:23;;;;;;;21.50;4.20;;;;;;;;;;5053002;28;20441;-76
2023/06/02 05:42:49;;;;;;;20.35;4.57;;;;;;;;;;5053037;28;20093;-76
2023/06/02 05:45:15;;;;;;;20.80;4.68;;;;;;;;;;5064057;28;20090;-77
2023/06/02 05:47:41;;;;;;;21.88;4.60;;;;;;;;;;5073109;28;20052;-76
2023/06/02 05:50:07;;;;;;;20.33;4.75;;;;;;;;;;5073786;28;20048;-76
2023/06/02 05:52:33;;;;;;;23.38;5.43;;;;;;;;;;5073180;28;20392;-76
2023/06/02 05:54:59;;;;;;;26.40;4.82;;;;;;;;;;5071736;28;20041;-76
2023/06/02 05:57:25;;;;;;;21.88;5.03;;;;;;;;;;5055918;28;20040;-76
2023/06/02 05:59:51;;;;;;;24.55;5.38;;;;;;;;;;5056146;28;20441;-76
2023/06/02 06:02:17;;;;;;;21.20;4.68;;;;;;;;;;5073481;28;20076;-76
2023/06/02 06:04:43;;;;;;;28.77;5.40;;;;;;;;;;5074088;28;20080;-76
2023/06/02 06:07:09;;;;;;;21.02;5.07;;;;;;;;;;5074158;28;20091;-76
2023/06/02 06:09:35;;;;;;;21.75;5.38;;;;;;;;;;5057967;28;20391;-76
2023/06/02 06:12:01;;;;;;;35.00;5.60;;;;;;;;;;5052744;28;20053;-77
2023/06/02 06:14:27;;;;;;;28.08;4.75;;;;;;;;;;5012469;28;20041;-76
2023/06/02 06:16:53;;;;;;;29.85;5.72;;;;;;;;;;5057401;28;20051;-76
2023/06/02 06:19:19;;;;;;;28.55;4.93;;;;;;;;;;5073370;28;20128;-76
2023/06/02 06:21:45;;;;;;;26.13;5.25;;;;;;;;;;5055849;28;20511;-77
2023/06/02 06:24:11;;;;;;;23.85;4.75;;;;;;;;;;5058699;28;20155;-77
2023/06/02 06:26:37;;;;;;;27.45;4.80;;;;;;;;;;5069097;28;20175;-77
2023/06/02 06:29:03;;;;;;;19.27;4.90;;;;;;;;;;5052435;28;20127;-76
2023/06/02 06:31:32;;;;;;;22.33;5.07;;;;;;;;;;5051870;28;20074;-77
2023/06/02 06:33:58;;;;;;;25.20;5.55;;;;;;;;;;5051796;28;20052;-77
2023/06/02 06:36:24;;;;;;;28.70;5.72;;;;;;;;;;5053610;28;20080;-76
2023/06/02 06:38:50;;;;;;;29.80;5.13;;;;;;;;;;5036252;28;20406;-77
2023/06/02 06:41:17;;;;;;;23.52;6.03;;;;;;;;;;5056066;28;20058;-76
2023/06/02 06:43:43;;;;;;;25.17;5.15;;;;;;;;;;5070027;28;20488;-77
2023/06/02 06:46:09;;;;;;;24.05;5.10;;;;;;;;;;5073035;28;20048;-77
2023/06/02 06:48:35;;;;;;;20.20;4.72;;;;;;;;;;5053206;28;20060;-77
2023/06/02 06:51:01;;;;;;;18.63;5.20;;;;;;;;;;5052149;28;20492;-77
2023/06/02 06:53:28;;;;;;;22.40;4.97;;;;;;;;;;5034012;28;20087;-77
2023/06/02 06:55:54;;;;;;;17.27;4.47;;;;;;;;;;5033324;28;20401;-77
2023/06/02 06:58:20;;;;;;;27.90;4.70;;;;;;;;;;5034520;28;20397;-77
2023/06/02 07:00:46;;;;;;;21.58;5.15;;;;;;;;;;5071132;28;20123;-77
2023/06/02 07:03:12;;;;;;;16.70;3.85;;;;;;;;;;5054486;28;20044;-77
2023/06/02 07:05:38;;;;;;;18.65;4.60;;;;;;;;;;5054874;28;20036;-77
2023/06/02 07:08:04;;;;;;;23.83;4.38;;;;;;;;;;5059023;28;20152;-77
2023/06/02 07:10:30;;;;;;;21.90;4.38;;;;;;;;;;5050942;28;20049;-76
2023/06/02 07:12:56;;;;;;;24.98;4.50;;;;;;;;;;5068023;28;20049;-77
2023/06/02 07:15:22;;;;;;;26.20;4.25;;;;;;;;;;5054587;28;20122;-76
2023/06/02 07:17:49;;;;;;;16.30;3.70;;;;;;;;;;5052533;28;20041;-78
2023/06/02 07:20:15;;;;;;;18.88;4.22;;;;;;;;;;5052451;28;20037;-77
2023/06/02 07:22:41;;;;;;;18.50;4.30;;;;;;;;;;5053328;28;20049;-77
2023/06/02 07:25:07;;;;;;;19.30;4.38;;;;;;;;;;5066092;28;20041;-79
2023/06/02 07:27:34;;;;;;;15.07;3.45;;;;;;;;;;5052562;28;20051;-76
2023/06/02 07:30:00;;;;;;;19.35;3.92;;;;;;;;;;5067656;28;20048;-76
2023/06/02 07:32:26;;;;;;;17.98;4.03;;;;;;;;;;5051006;28;20041;-74
2023/06/02 07:34:52;;;;;;;17.95;4.05;;;;;;;;;;5055206;28;20363;-75
2023/06/02 07:37:18;;;;;;;18.50;3.55;;;;;;;;;;5068633;28;20080;-75
2023/06/02 07:39:44;;;;;;;17.98;3.92;;;;;;;;;;5047195;28;20045;-75
2023/06/02 07:42:10;;;;;;;15.45;3.65;;;;;;;;;;5051716;28;20052;-75
2023/06/02 07:44:36;;;;;;;15.57;3.50;;;;;;;;;;5042169;28;20098;-75
2023/06/02 07:47:03;;;;;;;14.75;3.35;;;;;;;;;;5051583;28;20037;-75
2023/06/02 07:49:29;;;;;;;13.38;2.92;;;;;;;;;;5051939;28;20049;-77
2023/06/02 07:51:55;;;;;;;12.90;3.10;;;;;;;;;;5067648;28;20397;-76
2023/06/02 07:54:21;;;;;;;11.40;2.83;;;;;;;;;;5060581;28;20128;-76
2023/06/02 07:56:50;;;;;;;11.40;2.33;;;;;;;;;;5016443;28;20128;-76
2023/06/02 07:59:18;;;;;;;11.45;2.78;;;;;;;;;;5047097;28;20073;-76
2023/06/02 08:01:44;;;;;;;12.25;2.42;;;;;;;;;;5050324;28;20045;-74
2023/06/02 08:04:11;;;;;;;8.32;2.30;;;;;;;;;;5042806;28;20444;-77
2023/06/02 08:06:37;;;;;;;9.95;2.53;;;;;;;;;;5013760;28;20065;-74
2023/06/02 08:09:03;;;;;;;8.52;2.17;;;;;;;;;;5046428;28;20116;-76
2023/06/02 08:11:29;;;;;;;10.05;2.30;;;;;;;;;;5031913;28;20506;-76
2023/06/02 08:13:55;;;;;;;8.68;1.95;;;;;;;;;;5042960;28;20036;-76
2023/06/02 08:16:21;;;;;;;6.72;2.00;;;;;;;;;;5061079;28;20174;-76
2023/06/02 08:18:48;;;;;;;5.63;1.83;;;;;;;;;;5046932;28;20465;-76
2023/06/02 08:21:14;;;;;;;7.95;1.70;;;;;;;;;;5059756;28;20060;-76
2023/06/02 08:23:40;;;;;;;7.97;1.90;;;;;;;;;;5039570;28;20040;-77
2023/06/02 08:26:06;;;;;;;9.30;1.90;;;;;;;;;;5057089;28;20552;-77
2023/06/02 08:28:33;;;;;;;7.75;1.70;;;;;;;;;;5066885;28;20099;-75
2023/06/02 08:31:00;;;;;;;4.88;2.05;;;;;;;;;;5051977;28;20088;-75
2023/06/02 08:33:26;;;;;;;4.95;1.77;;;;;;;;;;5067282;28;20366;-76
2023/06/02 08:35:52;;;;;;;7.40;1.80;;;;;;;;;;5034155;28;20072;-75
2023/06/02 08:38:19;;;;;;;8.50;2.08;;;;;;;;;;5067221;28;20120;-74
2023/06/02 08:40:46;;;;;;;4.97;1.73;;;;;;;;;;5051922;28;20041;-76
2023/06/02 08:43:13;;;;;;;7.97;1.75;;;;;;;;;;5051398;28;20045;-77
2023/06/02 08:45:43;;;;;;;5.10;1.40;;;;;;;;;;5051534;28;20053;-77
2023/06/02 08:48:13;;;;;;;4.03;1.80;;;;;;;;;;5033204;28;20131;-77
2023/06/02 08:50:41;;;;;;;7.22;1.90;;;;;;;;;;5051884;28;20049;-78
2023/06/02 08:53:11;;;;;;;13.70;2.10;;;;;;;;;;5038863;28;20045;-77
2023/06/02 08:55:39;;;;;;;8.65;2.33;;;;;;;;;;5054856;28;20056;-77
2023/06/02 08:58:05;;;;;;;5.78;1.80;;;;;;;;;;5061132;28;20045;-77
2023/06/02 09:00:32;;;;;;;7.88;2.10;;;;;;;;;;5057729;28;20049;-78
2023/06/02 09:02:58;;;;;;;6.43;1.90;;;;;;;;;;5073192;28;20497;-79
2023/06/02 09:05:25;;;;;;;7.40;1.70;;;;;;;;;;5056487;28;20049;-77
2023/06/02 09:08:07;;;;;;;7.45;1.88;;;;;;;;;;5052675;28;20052;-74
2023/06/02 09:10:36;;;;;;;6.47;1.88;;;;;;;;;;5052251;28;20519;-74
2023/06/02 09:13:03;;;;;;;8.13;1.67;;;;;;;;;;5054189;28;20037;-76
2023/06/02 09:15:29;;;;;;;9.13;2.35;;;;;;;;;;5054990;28;20044;-77
2023/06/02 09:18:10;;;;;;;7.35;1.88;;;;;;;;;;5036780;28;20076;-76
2023/06/02 09:20:38;;;;;;;7.00;1.80;;;;;;;;;;5064164;28;20051;-76
2023/06/02 09:23:05;;;;;;;8.82;2.45;;;;;;;;;;5062867;28;20040;-77
2023/06/02 09:25:32;;;;;;;6.18;1.80;;;;;;;;;;5054988;28;20045;-76
2023/06/02 09:27:59;;;;;;;9.82;2.17;;;;;;;;;;5054078;28;20413;-76
2023/06/02 09:30:25;;;;;;;4.85;1.83;;;;;;;;;;5051708;28;20041;-76
2023/06/02 09:32:52;;;;;;;5.38;1.85;;;;;;;;;;5036748;28;20402;-75
2023/06/02 09:35:40;;;;;;;6.93;2.08;;;;;;;;;;5054297;28;20485;-75
2023/06/02 09:38:07;;;;;;;7.40;2.05;;;;;;;;;;5053955;28;20056;-75
2023/06/02 09:40:36;;;;;;;8.98;1.88;;;;;;;;;;5053564;28;20056;-74
2023/06/02 09:43:04;;;;;;;9.02;1.80;;;;;;;;;;5053582;28;20083;-75
2023/06/02 09:45:30;;;;;;;5.90;1.63;;;;;;;;;;5069449;28;20131;-75
2023/06/02 09:47:56;;;;;;;7.20;1.88;;;;;;;;;;5069441;28;20052;-76
2023/06/02 09:50:33;;;;;;;4.85;1.60;;;;;;;;;;5051951;28;20045;-76
2023/06/02 09:53:01;;;;;;;5.20;1.70;;;;;;;;;;5051598;28;20076;-75
2023/06/02 09:55:27;;;;;;;5.10;1.58;;;;;;;;;;5069432;28;20078;-75
2023/06/02 09:57:53;;;;;;;4.55;1.52;;;;;;;;;;5035900;28;20049;-75
2023/06/02 10:00:19;;;;;;;3.85;1.27;;;;;;;;;;5035049;28;20125;-75
2023/06/02 10:02:46;;;;;;;4.32;1.63;;;;;;;;;;5052806;28;20060;-75
2023/06/02 10:05:12;;;;;;;5.38;1.63;;;;;;;;;;5053620;28;20033;-75
2023/06/02 10:07:38;;;;;;;5.18;1.90;;;;;;;;;;5054276;28;20186;-75
2023/06/02 10:10:13;;;;;;;3.92;1.65;;;;;;;;;;5033604;28;20067;-75
2023/06/02 10:12:48;;;;;;;8.10;2.10;;;;;;;;;;5062732;28;20044;-70
2023/06/02 10:15:29;;;;;;;3.08;1.60;;;;;;;;;;5059615;28;20498;-70
2023/06/02 10:18:14;;;;;;;4.00;1.50;;;;;;;;;;5073164;28;20127;-70
2023/06/02 10:20:52;;;;;;;4.65;1.63;;;;;;;;;;5068052;28;20044;-71
2023/06/02 10:23:21;;;;;;;5.95;1.60;;;;;;;;;;5055239;28;20049;-70
2023/06/02 10:26:11;;;;;;;4.20;1.58;;;;;;;;;;5065482;28;20048;-69
2023/06/02 10:28:38;;;;;;;2.80;1.40;;;;;;;;;;5064533;28;20045;-69
2023/06/02 10:31:08;;;;;;;4.47;1.70;;;;;;;;;;5050479;28;20087;-70
2023/06/02 10:33:41;;;;;;;4.25;1.70;;;;;;;;;;5044582;28;20048;-70
2023/06/02 10:36:08;;;;;;;6.78;1.70;;;;;;;;;;5036234;28;20052;-71
2023/06/02 10:38:38;;;;;;;6.75;1.80;;;;;;;;;;5034640;28;20045;-71
2023/06/02 10:41:05;;;;;;;7.10;1.92;;;;;;;;;;5068327;28;20049;-71
2023/06/02 10:43:33;;;;;;;3.10;1.60;;;;;;;;;;5052877;28;20489;-70
2023/06/02 10:46:20;;;;;;;6.07;1.65;;;;;;;;;;5053174;28;20045;-70
2023/06/02 10:48:47;;;;;;;4.57;1.80;;;;;;;;;;5068586;28;20048;-71
2023/06/02 10:51:13;;;;;;;5.93;1.73;;;;;;;;;;5034794;28;20053;-71
2023/06/02 10:53:58;;;;;;;5.50;2.10;;;;;;;;;;5035105;28;20109;-70
2023/06/02 10:56:38;;;;;;;7.95;1.98;;;;;;;;;;5054449;28;20089;-70
2023/06/02 10:59:05;;;;;;;4.38;1.90;;;;;;;;;;5052624;28;20218;-70
2023/06/02 11:01:49;;;;;;;5.00;2.00;;;;;;;;;;5050155;28;20131;-71
2023/06/02 11:04:29;;;;;;;5.10;2.10;;;;;;;;;;5050652;28;20489;-70
2023/06/02 11:07:25;;;;;;;4.32;1.95;;;;;;;;;;5058581;28;20057;-70
2023/06/02 11:09:54;;;;;;;5.93;2.00;;;;;;;;;;5037118;28;20065;-70
2023/06/02 11:12:21;;;;;;;5.50;1.80;;;;;;;;;;5052745;28;20055;-70
2023/06/02 11:15:04;;;;;;;6.88;2.00;;;;;;;;;;5066148;28;20104;-71
2023/06/02 11:17:31;;;;;;;7.53;2.30;;;;;;;;;;5050424;28;20049;-71
2023/06/02 11:19:57;;;;;;;6.85;1.95;;;;;;;;;;5038222;28;20071;-70
2023/06/02 11:22:24;;;;;;;5.78;1.70;;;;;;;;;;5065450;28;20044;-74
2023/06/02 11:24:50;;;;;;;4.45;1.67;;;;;;;;;;5053425;28;20472;-75
2023/06/02 11:27:17;;;;;;;7.63;2.20;;;;;;;;;;5052727;28;20089;-75
2023/06/02 11:29:44;;;;;;;9.13;2.03;;;;;;;;;;5068316;28;20040;-75
2023/06/02 11:32:15;;;;;;;6.05;2.10;;;;;;;;;;5036716;28;20127;-75
2023/06/02 11:34:41;;;;;;;7.32;1.90;;;;;;;;;;5072469;28;20499;-75
2023/06/02 11:37:20;;;;;;;6.55;2.60;;;;;;;;;;5072417;28;20440;-75
2023/06/02 11:39:53;;;;;;;6.78;2.30;;;;;;;;;;5072251;28;20056;-75
2023/06/02 11:42:19;;;;;;;5.03;2.00;;;;;;;;;;5072267;28;20044;-75
2023/06/02 11:44:49;;;;;;;5.88;2.10;;;;;;;;;;5072315;28;20454;-75
2023/06/02 11:47:21;;;;;;;7.07;2.10;;;;;;;;;;5054466;28;20056;-76
2023/06/02 11:49:48;;;;;;;5.57;2.08;;;;;;;;;;5060026;28;20041;-76
2023/06/02 11:52:14;;;;;;;6.40;2.00;;;;;;;;;;5045539;28;20091;-76
2023/06/02 11:54:53;;;;;;;8.18;2.25;;;;;;;;;;5069725;28;20068;-72
2023/06/02 11:57:25;;;;;;;4.15;1.88;;;;;;;;;;5024066;28;20037;-71
2023/06/02 12:00:12;;;;;;;8.95;2.60;;;;;;;;;;5065103;28;20095;-71
2023/06/02 12:02:43;;;;;;;10.95;3.70;;;;;;;;;;5054157;28;20048;-70
2023/06/02 12:05:11;;;;;;;12.50;4.15;;;;;;;;;;5067223;28;20092;-70
2023/06/02 12:07:37;;;;;;;16.95;5.80;;;;;;;;;;5049564;28;20060;-70
2023/06/02 12:10:05;;;;;;;5.57;2.40;;;;;;;;;;5065813;28;20044;-71
2023/06/02 12:12:31;;;;;;;6.85;2.83;;;;;;;;;;5057001;28;20048;-70
2023/06/02 12:14:58;;;;;;;9.88;3.42;;;;;;;;;;5050538;28;20132;-70
2023/06/02 12:17:24;;;;;;;11.43;4.47;;;;;;;;;;5051904;28;20037;-70
2023/06/02 12:19:56;;;;;;;13.25;3.60;;;;;;;;;;5051348;28;20118;-69
2023/06/02 12:22:22;;;;;;;7.40;2.60;;;;;;;;;;5034102;28;20126;-69
2023/06/02 12:24:48;;;;;;;9.48;3.10;;;;;;;;;;5033388;28;20037;-70
2023/06/02 12:27:21;;;;;;;7.50;2.63;;;;;;;;;;5054656;28;20041;-70
2023/06/02 12:29:47;;;;;;;6.38;2.80;;;;;;;;;;5054330;28;20099;-70
2023/06/02 12:32:15;;;;;;;9.23;2.72;;;;;;;;;;5054411;28;20088;-70
2023/06/02 12:34:43;;;;;;;9.30;2.60;;;;;;;;;;5055082;28;20045;-71
2023/06/02 12:37:10;;;;;;;7.65;2.70;;;;;;;;;;5055683;28;20089;-70
2023/06/02 12:39:37;;;;;;;11.57;3.28;;;;;;;;;;5056774;28;20560;-71
2023/06/02 12:42:03;;;;;;;11.80;3.17;;;;;;;;;;5070395;28;20061;-70
2023/06/02 12:44:29;;;;;;;8.57;2.90;;;;;;;;;;5049668;28;20054;-71
2023/06/02 12:46:56;;;;;;;9.20;2.60;;;;;;;;;;5069086;28;21259;-70
2023/06/02 12:49:22;;;;;;;6.75;2.55;;;;;;;;;;5053277;28;20517;-75
2023/06/02 12:51:48;;;;;;;9.52;3.00;;;;;;;;;;5051438;28;20079;-76
2023/06/02 12:54:14;;;;;;;7.22;2.67;;;;;;;;;;5057220;28;20140;-76
2023/06/02 12:56:42;;;;;;;6.80;2.60;;;;;;;;;;5057398;28;20186;-77
2023/06/02 12:59:10;;;;;;;5.22;2.65;;;;;;;;;;5056549;28;20178;-75
2023/06/02 13:01:36;;;;;;;8.40;2.83;;;;;;;;;;5073706;28;20119;-75
2023/06/02 13:04:02;;;;;;;9.70;2.97;;;;;;;;;;5056559;28;20047;-75
2023/06/02 13:06:28;;;;;;;8.23;2.88;;;;;;;;;;5072664;28;20404;-75
2023/06/02 13:08:54;;;;;;;9.07;2.80;;;;;;;;;;5037993;28;20147;-75
2023/06/02 13:11:22;;;;;;;10.05;3.10;;;;;;;;;;5054956;28;20088;-74
2023/06/02 13:13:48;;;;;;;10.45;2.92;;;;;;;;;;5036995;28;20444;-75
2023/06/02 13:16:14;;;;;;;7.22;3.00;;;;;;;;;;5054385;28;20041;-75
2023/06/02 13:18:42;;;;;;;11.82;3.17;;;;;;;;;;5054190;28;20060;-76
2023/06/02 13:21:08;;;;;;;9.70;2.55;;;;;;;;;;5054062;28;20068;-75
2023/06/02 13:23:34;;;;;;;6.32;2.75;;;;;;;;;;5053641;28;20443;-74
2023/06/02 13:26:00;;;;;;;8.60;2.70;;;;;;;;;;5054629;28;20247;-75
2023/06/02 13:28:26;;;;;;;7.45;2.92;;;;;;;;;;5036748;28;20150;-74
2023/06/02 13:30:53;;;;;;;6.18;2.90;;;;;;;;;;5054427;28;20053;-74
2023/06/02 13:33:19;;;;;;;9.65;3.20;;;;;;;;;;5054810;28;20116;-75
2023/06/02 13:35:45;;;;;;;8.75;3.38;;;;;;;;;;5054639;28;20091;-74
2023/06/02 13:38:11;;;;;;;10.55;3.33;;;;;;;;;;5054545;28;20166;-75
2023/06/02 13:40:38;;;;;;;7.25;3.40;;;;;;;;;;5055066;28;20123;-75
2023/06/02 13:43:04;;;;;;;8.50;3.15;;;;;;;;;;5036978;28;20044;-69
2023/06/02 13:45:31;;;;;;;10.05;3.30;;;;;;;;;;5027150;28;20133;-70
2023/06/02 13:47:57;;;;;;;8.05;3.20;;;;;;;;;;5034285;28;20045;-70
2023/06/02 13:50:23;;;;;;;10.13;3.58;;;;;;;;;;5016444;28;20098;-70
2023/06/02 13:52:49;;;;;;;9.60;3.08;;;;;;;;;;5034433;28;20049;-71
2023/06/02 13:55:15;;;;;;;8.80;3.05;;;;;;;;;;5037452;28;20052;-70
2023/06/02 13:57:42;;;;;;;9.38;3.50;;;;;;;;;;5052454;28;20080;-70
2023/06/02 14:00:08;;;;;;;10.40;3.60;;;;;;;;;;5053386;28;20153;-72
2023/06/02 14:02:35;;;;;;;10.60;3.85;;;;;;;;;;5045618;28;20046;-71
2023/06/02 14:05:01;;;;;;;6.85;3.45;;;;;;;;;;5063945;28;20114;-70
2023/06/02 14:07:27;;;;;;;6.60;3.10;;;;;;;;;;5035228;28;20106;-69
2023/06/02 14:09:53;;;;;;;11.00;3.33;;;;;;;;;;5032228;28;20072;-69
2023/06/02 14:12:20;;;;;;;10.02;3.40;;;;;;;;;;5028980;28;20091;-70
2023/06/02 14:14:46;;;;;;;12.80;3.70;;;;;;;;;;5054014;28;20037;-70
2023/06/02 14:17:12;;;;;;;10.95;3.28;;;;;;;;;;5053115;28;20440;-70
2023/06/02 14:19:38;;;;;;;8.57;3.25;;;;;;;;;;5049779;28;20055;-71
2023/06/02 14:22:05;;;;;;;7.32;3.15;;;;;;;;;;5053031;28;20079;-71
2023/06/02 14:24:31;;;;;;;8.93;3.35;;;;;;;;;;5051408;28;20059;-70
2023/06/02 14:26:57;;;;;;;8.07;2.90;;;;;;;;;;5053699;28;20037;-71
2023/06/02 14:29:23;;;;;;;8.88;3.30;;;;;;;;;;5050644;28;20064;-70
2023/06/02 14:31:49;;;;;;;8.90;3.10;;;;;;;;;;5014298;28;20041;-69
2023/06/02 14:34:15;;;;;;;8.68;3.47;;;;;;;;;;5032940;28;20118;-70
2023/06/02 14:36:41;;;;;;;9.80;3.38;;;;;;;;;;5032880;28;20521;-69